sensor_id;sensor_type;location;lat;lon;timestamp;temperature;humidity
23291;DHT22;11814;44.686;10.842;2023-06-10T00:00:52;22.60;99.90
23291;DHT22;11814;44.686;10.842;2023-06-10T00:03:18;22.60;99.90
23291;DHT22;11814;44.686;10.842;2023-06-10T00:05:43;22.60;99.90
23291;DHT22;11814;44.686;10.842;2023-06-10T00:08:09;22.50;99.90
23291;DHT22;11814;44.686;10.842;2023-06-10T00:10:38;22.60;99.90
23291;DHT22;11814;44.686;10.842;2023-06-10T00:13:05;22.60;99.90
23291;DHT22;11814;44.686;10.842;2023-06-10T00:15:34;22.60;99.90
23291;DHT22;11814;44.686;10.842;2023-06-10T00:18:00;22.60;99.90
23291;DHT22;11814;44.686;10.842;2023-06-10T00:20:27;22.60;99.90
23291;DHT22;11814;44.686;10.842;2023-06-10T00:22:53;22.60;99.90
23291;DHT22;11814;44.686;10.842;2023-06-10T00:25:19;22.60;99.90
23291;DHT22;11814;44.686;10.842;2023-06-10T00:27:44;22.60;99.90
23291;DHT22;11814;44.686;10.842;2023-06-10T00:30:10;22.60;99.90
23291;DHT22;11814;44.686;10.842;2023-06-10T00:32:37;22.70;99.90
23291;DHT22;11814;44.686;10.842;2023-06-10T00:35:03;22.60;99.90
23291;DHT22;11814;44.686;10.842;2023-06-10T00:37:29;22.60;99.90
23291;DHT22;11814;44.686;10.842;2023-06-10T00:39:55;22.60;99.90
23291;DHT22;11814;44.686;10.842;2023-06-10T00:42:21;22.60;99.90
23291;DHT22;11814;44.686;10.842;2023-06-10T00:44:50;22.50;99.90
23291;DHT22;11814;44.686;10.842;2023-06-10T00:47:16;22.50;99.90
23291;DHT22;11814;44.686;10.842;2023-06-10T00:49:43;22.50;99.90
23291;DHT22;11814;44.686;10.842;2023-06-10T00:52:10;22.50;99.90
23291;DHT22;11814;44.686;10.842;2023-06-10T00:54:37;22.50;99.90
23291;DHT22;11814;44.686;10.842;2023-06-10T00:57:04;22.50;99.90
23291;DHT22;11814;44.686;10.842;2023-06-10T00:59:31;22.60;99.90
23291;DHT22;11814;44.686;10.842;2023-06-10T01:01:57;22.50;99.90
23291;DHT22;11814;44.686;10.842;2023-06-10T01:04:23;22.50;99.90
23291;DHT22;11814;44.686;10.842;2023-06-10T01:13:00;22.50;99.90
23291;DHT22;11814;44.686;10.842;2023-06-10T01:15:33;22.50;99.90
23291;DHT22;11814;44.686;10.842;2023-06-10T01:18:01;22.50;99.90
23291;DHT22;11814;44.686;10.842;2023-06-10T01:20:30;22.50;99.90
23291;DHT22;11814;44.686;10.842;2023-06-10T01:22:58;22.40;99.90
23291;DHT22;11814;44.686;10.842;2023-06-10T01:25:26;22.40;99.90
23291;DHT22;11814;44.686;10.842;2023-06-10T01:28:14;22.40;99.90
23291;DHT22;11814;44.686;10.842;2023-06-10T01:31:04;22.30;99.90
23291;DHT22;11814;44.686;10.842;2023-06-10T01:33:36;22.30;99.90
23291;DHT22;11814;44.686;10.842;2023-06-10T01:36:03;22.30;99.90
23291;DHT22;11814;44.686;10.842;2023-06-10T01:38:36;22.20;99.90
23291;DHT22;11814;44.686;10.842;2023-06-10T01:41:06;22.20;99.90
23291;DHT22;11814;44.686;10.842;2023-06-10T01:43:34;22.20;99.90
23291;DHT22;11814;44.686;10.842;2023-06-10T01:46:02;22.10;99.90
23291;DHT22;11814;44.686;10.842;2023-06-10T01:48:28;22.10;99.90
23291;DHT22;11814;44.686;10.842;2023-06-10T01:50:54;22.10;99.90
23291;DHT22;11814;44.686;10.842;2023-06-10T01:53:22;22.10;99.90
23291;DHT22;11814;44.686;10.842;2023-06-10T01:55:48;22.10;99.90
23291;DHT22;11814;44.686;10.842;2023-06-10T01:58:13;22.00;99.90
23291;DHT22;11814;44.686;10.842;2023-06-10T02:00:39;22.00;99.90
23291;DHT22;11814;44.686;10.842;2023-06-10T02:03:05;22.00;99.90
23291;DHT22;11814;44.686;10.842;2023-06-10T02:05:31;22.00;99.90
23291;DHT22;11814;44.686;10.842;2023-06-10T02:07:57;22.00;99.90
23291;DHT22;11814;44.686;10.842;2023-06-10T02:10:23;22.00;99.90
23291;DHT22;11814;44.686;10.842;2023-06-10T02:12:49;22.00;99.90
23291;DHT22;11814;44.686;10.842;2023-06-10T02:15:15;22.00;99.90
23291;DHT22;11814;44.686;10.842;2023-06-10T02:17:41;22.10;99.90
23291;DHT22;11814;44.686;10.842;2023-06-10T02:20:07;22.10;99.90
23291;DHT22;11814;44.686;10.842;2023-06-10T02:22:36;22.10;99.90
23291;DHT22;11814;44.686;10.842;2023-06-10T02:25:02;22.10;99.90
23291;DHT22;11814;44.686;10.842;2023-06-10T02:27:29;22.00;99.90
23291;DHT22;11814;44.686;10.842;2023-06-10T02:29:56;22.10;99.90
23291;DHT22;11814;44.686;10.842;2023-06-10T02:32:22;22.10;99.90
23291;DHT22;11814;44.686;10.842;2023-06-10T02:34:48;22.00;99.90
23291;DHT22;11814;44.686;10.842;2023-06-10T02:37:17;22.10;99.90
23291;DHT22;11814;44.686;10.842;2023-06-10T02:39:42;22.10;99.90
23291;DHT22;11814;44.686;10.842;2023-06-10T02:42:08;22.10;99.90
23291;DHT22;11814;44.686;10.842;2023-06-10T02:44:34;22.10;99.90
23291;DHT22;11814;44.686;10.842;2023-06-10T02:47:00;22.10;99.90
23291;DHT22;11814;44.686;10.842;2023-06-10T02:49:25;22.00;99.90
23291;DHT22;11814;44.686;10.842;2023-06-10T02:51:54;22.00;99.90
23291;DHT22;11814;44.686;10.842;2023-06-10T02:54:20;22.00;99.90
23291;DHT22;11814;44.686;10.842;2023-06-10T02:56:46;22.00;99.90
23291;DHT22;11814;44.686;10.842;2023-06-10T02:59:13;22.00;99.90
23291;DHT22;11814;44.686;10.842;2023-06-10T03:01:40;22.00;99.90
23291;DHT22;11814;44.686;10.842;2023-06-10T03:04:06;22.00;99.90
23291;DHT22;11814;44.686;10.842;2023-06-10T03:06:33;22.00;99.90
23291;DHT22;11814;44.686;10.842;2023-06-10T03:09:00;22.00;99.90
23291;DHT22;11814;44.686;10.842;2023-06-10T03:11:26;22.00;99.90
23291;DHT22;11814;44.686;10.842;2023-06-10T03:13:52;22.00;99.90
23291;DHT22;11814;44.686;10.842;2023-06-10T03:16:19;22.00;99.90
23291;DHT22;11814;44.686;10.842;2023-06-10T03:18:45;22.00;99.90
23291;DHT22;11814;44.686;10.842;2023-06-10T03:21:11;22.00;99.90
23291;DHT22;11814;44.686;10.842;2023-06-10T03:23:36;21.90;99.90
23291;DHT22;11814;44.686;10.842;2023-06-10T03:26:04;21.90;99.90
23291;DHT22;11814;44.686;10.842;2023-06-10T03:28:31;21.90;99.90
23291;DHT22;11814;44.686;10.842;2023-06-10T03:30:57;21.80;99.90
23291;DHT22;11814;44.686;10.842;2023-06-10T03:33:22;21.80;99.90
23291;DHT22;11814;44.686;10.842;2023-06-10T03:35:48;21.80;99.90
23291;DHT22;11814;44.686;10.842;2023-06-10T03:38:14;21.80;99.90
23291;DHT22;11814;44.686;10.842;2023-06-10T03:40:40;21.90;99.90
23291;DHT22;11814;44.686;10.842;2023-06-10T03:43:05;21.80;99.90
23291;DHT22;11814;44.686;10.842;2023-06-10T03:45:31;21.80;99.90
23291;DHT22;11814;44.686;10.842;2023-06-10T03:47:57;21.80;99.90
23291;DHT22;11814;44.686;10.842;2023-06-10T03:50:23;21.80;99.90
23291;DHT22;11814;44.686;10.842;2023-06-10T03:52:50;21.80;99.90
23291;DHT22;11814;44.686;10.842;2023-06-10T03:55:16;21.80;99.90
23291;DHT22;11814;44.686;10.842;2023-06-10T03:57:43;21.80;99.90
23291;DHT22;11814;44.686;10.842;2023-06-10T04:00:09;21.80;99.90
23291;DHT22;11814;44.686;10.842;2023-06-10T04:02:38;21.80;99.90
23291;DHT22;11814;44.686;10.842;2023-06-10T04:05:18;21.80;99.90
23291;DHT22;11814;44.686;10.842;2023-06-10T04:07:43;21.80;99.90
23291;DHT22;11814;44.686;10.842;2023-06-10T04:10:10;21.80;99.90
23291;DHT22;11814;44.686;10.842;2023-06-10T04:12:37;21.90;99.90
23291;DHT22;11814;44.686;10.842;2023-06-10T04:15:04;21.80;99.90
23291;DHT22;11814;44.686;10.842;2023-06-10T04:17:30;21.80;99.90
23291;DHT22;11814;44.686;10.842;2023-06-10T04:19:56;21.80;99.90
23291;DHT22;11814;44.686;10.842;2023-06-10T04:22:22;21.80;99.90
23291;DHT22;11814;44.686;10.842;2023-06-10T04:24:48;21.80;99.90
23291;DHT22;11814;44.686;10.842;2023-06-10T04:27:14;21.70;99.90
23291;DHT22;11814;44.686;10.842;2023-06-10T04:29:40;21.70;99.90
23291;DHT22;11814;44.686;10.842;2023-06-10T04:32:06;21.70;99.90
23291;DHT22;11814;44.686;10.842;2023-06-10T04:34:36;21.80;99.90
23291;DHT22;11814;44.686;10.842;2023-06-10T04:37:01;21.80;99.90
23291;DHT22;11814;44.686;10.842;2023-06-10T04:39:28;21.80;99.90
23291;DHT22;11814;44.686;10.842;2023-06-10T04:41:53;21.80;99.90
23291;DHT22;11814;44.686;10.842;2023-06-10T04:44:19;21.80;99.90
23291;DHT22;11814;44.686;10.842;2023-06-10T04:46:45;21.80;99.90
23291;DHT22;11814;44.686;10.842;2023-06-10T04:49:11;21.80;99.90
23291;DHT22;11814;44.686;10.842;2023-06-10T04:51:39;21.80;99.90
23291;DHT22;11814;44.686;10.842;2023-06-10T04:54:05;21.80;99.90
23291;DHT22;11814;44.686;10.842;2023-06-10T04:56:31;21.90;99.90
23291;DHT22;11814;44.686;10.842;2023-06-10T04:58:57;21.90;99.90
23291;DHT22;11814;44.686;10.842;2023-06-10T05:01:23;21.90;99.90
23291;DHT22;11814;44.686;10.842;2023-06-10T05:03:49;21.90;99.90
23291;DHT22;11814;44.686;10.842;2023-06-10T05:06:15;21.90;99.90
23291;DHT22;11814;44.686;10.842;2023-06-10T05:08:41;21.90;99.90
23291;DHT22;11814;44.686;10.842;2023-06-10T05:11:07;22.00;99.90
23291;DHT22;11814;44.686;10.842;2023-06-10T05:13:32;22.00;99.90
23291;DHT22;11814;44.686;10.842;2023-06-10T05:15:58;22.00;99.90
23291;DHT22;11814;44.686;10.842;2023-06-10T05:18:24;22.00;99.90
23291;DHT22;11814;44.686;10.842;2023-06-10T05:20:50;22.10;99.90
23291;DHT22;11814;44.686;10.842;2023-06-10T05:23:16;22.10;99.90
23291;DHT22;11814;44.686;10.842;2023-06-10T05:25:42;22.10;99.90
23291;DHT22;11814;44.686;10.842;2023-06-10T05:28:08;22.10;99.90
23291;DHT22;11814;44.686;10.842;2023-06-10T05:30:37;22.10;99.90
23291;DHT22;11814;44.686;10.842;2023-06-10T05:33:03;22.10;99.90
23291;DHT22;11814;44.686;10.842;2023-06-10T05:35:29;22.20;99.90
23291;DHT22;11814;44.686;10.842;2023-06-10T05:37:55;22.20;99.90
23291;DHT22;11814;44.686;10.842;2023-06-10T05:40:21;22.20;99.90
23291;DHT22;11814;44.686;10.842;2023-06-10T05:42:46;22.30;99.90
23291;DHT22;11814;44.686;10.842;2023-06-10T05:45:12;22.30;99.90
23291;DHT22;11814;44.686;10.842;2023-06-10T05:47:38;22.30;99.90
23291;DHT22;11814;44.686;10.842;2023-06-10T05:50:04;22.40;99.90
23291;DHT22;11814;44.686;10.842;2023-06-10T05:52:33;22.40;99.90
23291;DHT22;11814;44.686;10.842;2023-06-10T05:54:59;22.40;99.90
23291;DHT22;11814;44.686;10.842;2023-06-10T05:57:25;22.50;99.90
23291;DHT22;11814;44.686;10.842;2023-06-10T05:59:51;22.60;99.90
23291;DHT22;11814;44.686;10.842;2023-06-10T06:02:17;22.60;99.90
23291;DHT22;11814;44.686;10.842;2023-06-10T06:04:43;22.60;99.90
23291;DHT22;11814;44.686;10.842;2023-06-10T06:07:09;22.60;99.90
23291;DHT22;11814;44.686;10.842;2023-06-10T06:09:35;22.60;99.90
23291;DHT22;11814;44.686;10.842;2023-06-10T06:12:00;22.60;99.90
23291;DHT22;11814;44.686;10.842;2023-06-10T06:14:30;22.70;99.90
23291;DHT22;11814;44.686;10.842;2023-06-10T06:16:56;22.70;99.90
23291;DHT22;11814;44.686;10.842;2023-06-10T06:19:22;22.80;99.90
23291;DHT22;11814;44.686;10.842;2023-06-10T06:21:48;22.80;99.90
23291;DHT22;11814;44.686;10.842;2023-06-10T06:24:15;22.80;99.90
23291;DHT22;11814;44.686;10.842;2023-06-10T06:26:41;22.90;99.90
23291;DHT22;11814;44.686;10.842;2023-06-10T06:29:06;22.90;99.90
23291;DHT22;11814;44.686;10.842;2023-06-10T06:31:32;22.90;99.90
23291;DHT22;11814;44.686;10.842;2023-06-10T06:33:58;23.00;99.90
23291;DHT22;11814;44.686;10.842;2023-06-10T06:36:24;23.00;99.90
23291;DHT22;11814;44.686;10.842;2023-06-10T06:38:49;23.10;99.90
23291;DHT22;11814;44.686;10.842;2023-06-10T06:41:15;23.10;99.90
23291;DHT22;11814;44.686;10.842;2023-06-10T06:43:41;23.20;99.90
23291;DHT22;11814;44.686;10.842;2023-06-10T06:46:08;23.20;99.90
23291;DHT22;11814;44.686;10.842;2023-06-10T06:48:34;23.20;99.90
23291;DHT22;11814;44.686;10.842;2023-06-10T06:51:00;23.20;99.90
23291;DHT22;11814;44.686;10.842;2023-06-10T06:53:25;23.20;99.90
23291;DHT22;11814;44.686;10.842;2023-06-10T06:55:51;23.20;99.90
23291;DHT22;11814;44.686;10.842;2023-06-10T06:58:17;23.20;99.90
23291;DHT22;11814;44.686;10.842;2023-06-10T07:00:43;23.30;99.90
23291;DHT22;11814;44.686;10.842;2023-06-10T07:03:08;23.30;99.90
23291;DHT22;11814;44.686;10.842;2023-06-10T07:05:34;23.40;99.90
23291;DHT22;11814;44.686;10.842;2023-06-10T07:08:00;23.40;99.90
23291;DHT22;11814;44.686;10.842;2023-06-10T07:10:26;23.50;99.90
23291;DHT22;11814;44.686;10.842;2023-06-10T07:12:52;23.50;99.90
23291;DHT22;11814;44.686;10.842;2023-06-10T07:15:18;23.50;99.90
23291;DHT22;11814;44.686;10.842;2023-06-10T07:17:44;23.50;99.90
23291;DHT22;11814;44.686;10.842;2023-06-10T07:20:10;23.70;99.90
23291;DHT22;11814;44.686;10.842;2023-06-10T07:22:36;23.80;99.90
23291;DHT22;11814;44.686;10.842;2023-06-10T07:25:04;23.90;99.90
23291;DHT22;11814;44.686;10.842;2023-06-10T07:27:31;24.00;99.90
23291;DHT22;11814;44.686;10.842;2023-06-10T07:29:56;24.00;99.90
23291;DHT22;11814;44.686;10.842;2023-06-10T07:32:22;24.10;99.90
23291;DHT22;11814;44.686;10.842;2023-06-10T07:34:49;24.10;99.90
23291;DHT22;11814;44.686;10.842;2023-06-10T07:37:15;24.20;99.90
23291;DHT22;11814;44.686;10.842;2023-06-10T07:39:41;24.30;99.90
23291;DHT22;11814;44.686;10.842;2023-06-10T07:42:08;24.40;99.90
23291;DHT22;11814;44.686;10.842;2023-06-10T07:44:34;24.50;99.90
23291;DHT22;11814;44.686;10.842;2023-06-10T07:47:00;24.60;99.90
23291;DHT22;11814;44.686;10.842;2023-06-10T07:49:25;24.60;99.90
23291;DHT22;11814;44.686;10.842;2023-06-10T07:51:54;24.70;99.90
23291;DHT22;11814;44.686;10.842;2023-06-10T07:54:21;24.70;99.90
23291;DHT22;11814;44.686;10.842;2023-06-10T07:56:46;24.70;99.90
23291;DHT22;11814;44.686;10.842;2023-06-10T07:59:13;24.70;99.90
23291;DHT22;11814;44.686;10.842;2023-06-10T08:01:39;24.70;99.90
23291;DHT22;11814;44.686;10.842;2023-06-10T08:04:06;24.70;99.90
23291;DHT22;11814;44.686;10.842;2023-06-10T08:06:32;24.70;99.90
23291;DHT22;11814;44.686;10.842;2023-06-10T08:08:57;24.60;99.90
23291;DHT22;11814;44.686;10.842;2023-06-10T08:11:23;24.60;99.90
23291;DHT22;11814;44.686;10.842;2023-06-10T08:13:49;24.60;99.90
23291;DHT22;11814;44.686;10.842;2023-06-10T08:16:15;24.60;99.90
23291;DHT22;11814;44.686;10.842;2023-06-10T08:18:41;24.60;99.90
23291;DHT22;11814;44.686;10.842;2023-06-10T08:21:06;24.50;99.90
23291;DHT22;11814;44.686;10.842;2023-06-10T08:23:32;24.50;99.90
23291;DHT22;11814;44.686;10.842;2023-06-10T08:25:58;24.50;99.90
23291;DHT22;11814;44.686;10.842;2023-06-10T08:28:23;24.60;99.90
23291;DHT22;11814;44.686;10.842;2023-06-10T08:30:49;24.50;99.90
23291;DHT22;11814;44.686;10.842;2023-06-10T08:33:15;24.50;99.90
23291;DHT22;11814;44.686;10.842;2023-06-10T08:35:41;24.50;99.90
23291;DHT22;11814;44.686;10.842;2023-06-10T08:38:06;24.50;99.90
23291;DHT22;11814;44.686;10.842;2023-06-10T08:40:33;24.60;99.90
23291;DHT22;11814;44.686;10.842;2023-06-10T08:45:30;24.70;99.90
23291;DHT22;11814;44.686;10.842;2023-06-10T08:48:05;24.80;99.90
23291;DHT22;11814;44.686;10.842;2023-06-10T08:50:36;24.80;99.90
23291;DHT22;11814;44.686;10.842;2023-06-10T08:53:05;24.80;99.90
23291;DHT22;11814;44.686;10.842;2023-06-10T08:55:33;24.90;99.90
23291;DHT22;11814;44.686;10.842;2023-06-10T08:58:01;25.00;99.90
23291;DHT22;11814;44.686;10.842;2023-06-10T09:00:28;25.00;99.90
23291;DHT22;11814;44.686;10.842;2023-06-10T09:02:56;25.10;99.90
23291;DHT22;11814;44.686;10.842;2023-06-10T09:05:22;25.20;99.90
23291;DHT22;11814;44.686;10.842;2023-06-10T09:07:49;25.20;99.90
23291;DHT22;11814;44.686;10.842;2023-06-10T09:10:17;25.20;99.90
23291;DHT22;11814;44.686;10.842;2023-06-10T09:12:42;25.30;99.90
23291;DHT22;11814;44.686;10.842;2023-06-10T09:15:09;25.30;99.90
23291;DHT22;11814;44.686;10.842;2023-06-10T09:17:35;25.40;99.90
23291;DHT22;11814;44.686;10.842;2023-06-10T09:20:07;25.40;99.90
23291;DHT22;11814;44.686;10.842;2023-06-10T09:22:33;25.40;99.90
23291;DHT22;11814;44.686;10.842;2023-06-10T09:25:09;25.40;99.90
23291;DHT22;11814;44.686;10.842;2023-06-10T09:27:49;25.20;99.90
23291;DHT22;11814;44.686;10.842;2023-06-10T09:30:26;25.20;99.90
23291;DHT22;11814;44.686;10.842;2023-06-10T09:32:57;25.00;99.90
23291;DHT22;11814;44.686;10.842;2023-06-10T09:35:28;24.80;99.90
23291;DHT22;11814;44.686;10.842;2023-06-10T09:37:59;24.80;99.90
23291;DHT22;11814;44.686;10.842;2023-06-10T09:40:25;24.70;99.90
23291;DHT22;11814;44.686;10.842;2023-06-10T09:42:57;24.60;99.90
23291;DHT22;11814;44.686;10.842;2023-06-10T09:45:29;24.60;99.90
23291;DHT22;11814;44.686;10.842;2023-06-10T09:47:55;24.50;99.90
23291;DHT22;11814;44.686;10.842;2023-06-10T09:50:21;24.40;99.90
23291;DHT22;11814;44.686;10.842;2023-06-10T09:52:47;24.30;99.90
23291;DHT22;11814;44.686;10.842;2023-06-10T09:55:16;24.20;99.90
23291;DHT22;11814;44.686;10.842;2023-06-10T09:57:42;24.10;99.90
23291;DHT22;11814;44.686;10.842;2023-06-10T10:00:13;24.10;99.90
23291;DHT22;11814;44.686;10.842;2023-06-10T10:02:47;24.00;99.90
23291;DHT22;11814;44.686;10.842;2023-06-10T10:05:15;24.00;99.90
23291;DHT22;11814;44.686;10.842;2023-06-10T10:07:42;23.90;99.90
23291;DHT22;11814;44.686;10.842;2023-06-10T10:10:08;23.90;99.90
23291;DHT22;11814;44.686;10.842;2023-06-10T10:12:36;23.80;99.90
23291;DHT22;11814;44.686;10.842;2023-06-10T10:15:03;23.80;99.90
23291;DHT22;11814;44.686;10.842;2023-06-10T10:17:32;23.70;99.90
23291;DHT22;11814;44.686;10.842;2023-06-10T10:20:03;23.70;99.90
23291;DHT22;11814;44.686;10.842;2023-06-10T10:22:38;23.70;99.90
23291;DHT22;11814;44.686;10.842;2023-06-10T10:25:11;23.70;99.90
23291;DHT22;11814;44.686;10.842;2023-06-10T10:27:43;23.70;99.90
23291;DHT22;11814;44.686;10.842;2023-06-10T10:30:11;23.70;99.90
23291;DHT22;11814;44.686;10.842;2023-06-10T10:32:45;23.70;99.90
23291;DHT22;11814;44.686;10.842;2023-06-10T10:35:21;23.70;99.90
23291;DHT22;11814;44.686;10.842;2023-06-10T10:37:52;23.70;99.90
23291;DHT22;11814;44.686;10.842;2023-06-10T10:40:20;23.60;99.90
23291;DHT22;11814;44.686;10.842;2023-06-10T10:42:50;23.60;99.90
23291;DHT22;11814;44.686;10.842;2023-06-10T10:45:17;23.60;99.90
23291;DHT22;11814;44.686;10.842;2023-06-10T10:47:45;23.60;99.90
23291;DHT22;11814;44.686;10.842;2023-06-10T10:50:15;23.70;99.90
23291;DHT22;11814;44.686;10.842;2023-06-10T10:53:02;23.60;99.90
23291;DHT22;11814;44.686;10.842;2023-06-10T10:55:28;23.50;99.90
23291;DHT22;11814;44.686;10.842;2023-06-10T10:57:55;23.50;99.90
23291;DHT22;11814;44.686;10.842;2023-06-10T11:02:52;23.50;99.90
23291;DHT22;11814;44.686;10.842;2023-06-10T11:05:40;23.50;99.90
23291;DHT22;11814;44.686;10.842;2023-06-10T11:08:08;23.50;99.90
23291;DHT22;11814;44.686;10.842;2023-06-10T11:13:09;23.40;99.90
23291;DHT22;11814;44.686;10.842;2023-06-10T11:15:39;23.30;99.90
23291;DHT22;11814;44.686;10.842;2023-06-10T11:18:20;23.20;99.90
23291;DHT22;11814;44.686;10.842;2023-06-10T11:20:51;23.20;99.90
23291;DHT22;11814;44.686;10.842;2023-06-10T11:26:29;23.10;99.90
23291;DHT22;11814;44.686;10.842;2023-06-10T11:31:27;23.10;99.90
23291;DHT22;11814;44.686;10.842;2023-06-10T11:34:04;23.10;99.90
23291;DHT22;11814;44.686;10.842;2023-06-10T11:36:33;23.10;99.90
23291;DHT22;11814;44.686;10.842;2023-06-10T11:39:01;23.20;99.90
23291;DHT22;11814;44.686;10.842;2023-06-10T11:41:28;23.20;99.90
23291;DHT22;11814;44.686;10.842;2023-06-10T11:46:29;23.30;99.90
23291;DHT22;11814;44.686;10.842;2023-06-10T11:48:57;23.30;99.90
23291;DHT22;11814;44.686;10.842;2023-06-10T11:51:37;23.40;99.90
23291;DHT22;11814;44.686;10.842;2023-06-10T11:54:05;23.40;99.90
23291;DHT22;11814;44.686;10.842;2023-06-10T11:56:31;23.50;99.90
23291;DHT22;11814;44.686;10.842;2023-06-10T11:58:58;23.50;99.90
23291;DHT22;11814;44.686;10.842;2023-06-10T12:01:27;23.60;99.90
23291;DHT22;11814;44.686;10.842;2023-06-10T12:04:06;23.70;99.90
23291;DHT22;11814;44.686;10.842;2023-06-10T12:06:51;23.80;99.90
23291;DHT22;11814;44.686;10.842;2023-06-10T12:09:28;23.90;99.90
23291;DHT22;11814;44.686;10.842;2023-06-10T12:11:58;24.00;99.90
23291;DHT22;11814;44.686;10.842;2023-06-10T12:17:23;24.10;99.90
23291;DHT22;11814;44.686;10.842;2023-06-10T12:19:50;24.10;99.90
23291;DHT22;11814;44.686;10.842;2023-06-10T12:22:16;24.20;99.90
23291;DHT22;11814;44.686;10.842;2023-06-10T12:24:58;24.30;99.90
23291;DHT22;11814;44.686;10.842;2023-06-10T12:27:31;24.40;99.90
23291;DHT22;11814;44.686;10.842;2023-06-10T12:30:01;24.50;99.90
23291;DHT22;11814;44.686;10.842;2023-06-10T12:32:40;24.50;99.90
23291;DHT22;11814;44.686;10.842;2023-06-10T12:35:07;24.60;99.90
23291;DHT22;11814;44.686;10.842;2023-06-10T12:37:33;24.60;99.90
23291;DHT22;11814;44.686;10.842;2023-06-10T12:40:03;24.70;99.90
23291;DHT22;11814;44.686;10.842;2023-06-10T12:42:35;24.70;99.90
23291;DHT22;11814;44.686;10.842;2023-06-10T12:45:02;24.70;99.90
23291;DHT22;11814;44.686;10.842;2023-06-10T12:47:33;24.70;99.90
23291;DHT22;11814;44.686;10.842;2023-06-10T12:50:01;24.80;99.90
23291;DHT22;11814;44.686;10.842;2023-06-10T12:52:28;24.80;99.90
23291;DHT22;11814;44.686;10.842;2023-06-10T12:54:54;24.80;99.90
23291;DHT22;11814;44.686;10.842;2023-06-10T12:57:21;24.80;99.90
23291;DHT22;11814;44.686;10.842;2023-06-10T12:59:48;24.80;99.90
23291;DHT22;11814;44.686;10.842;2023-06-10T13:02:21;24.90;99.90
23291;DHT22;11814;44.686;10.842;2023-06-10T13:04:49;24.90;99.90
23291;DHT22;11814;44.686;10.842;2023-06-10T13:07:16;25.00;99.90
23291;DHT22;11814;44.686;10.842;2023-06-10T13:09:43;25.00;99.90
23291;DHT22;11814;44.686;10.842;2023-06-10T13:12:09;25.00;99.90
23291;DHT22;11814;44.686;10.842;2023-06-10T13:14:36;25.00;99.90
23291;DHT22;11814;44.686;10.842;2023-06-10T13:17:04;25.00;99.90
23291;DHT22;11814;44.686;10.842;2023-06-10T13:19:32;25.00;99.90
23291;DHT22;11814;44.686;10.842;2023-06-10T13:21:58;25.00;99.90
23291;DHT22;11814;44.686;10.842;2023-06-10T13:24:24;25.10;99.90
23291;DHT22;11814;44.686;10.842;2023-06-10T13:26:50;25.10;99.90
23291;DHT22;11814;44.686;10.842;2023-06-10T13:29:16;25.10;99.90
23291;DHT22;11814;44.686;10.842;2023-06-10T13:31:41;25.10;99.80
23291;DHT22;11814;44.686;10.842;2023-06-10T13:34:08;25.10;99.90
23291;DHT22;11814;44.686;10.842;2023-06-10T13:36:33;25.20;99.90
23291;DHT22;11814;44.686;10.842;2023-06-10T13:39:00;25.20;99.90
23291;DHT22;11814;44.686;10.842;2023-06-10T13:41:26;25.20;99.90
23291;DHT22;11814;44.686;10.842;2023-06-10T13:43:54;25.10;99.90
23291;DHT22;11814;44.686;10.842;2023-06-10T13:46:21;25.20;99.90
23291;DHT22;11814;44.686;10.842;2023-06-10T13:48:52;25.20;99.90
23291;DHT22;11814;44.686;10.842;2023-06-10T13:51:18;25.20;99.90
23291;DHT22;11814;44.686;10.842;2023-06-10T13:53:44;25.30;99.90
23291;DHT22;11814;44.686;10.842;2023-06-10T13:56:11;25.40;99.90
23291;DHT22;11814;44.686;10.842;2023-06-10T13:58:37;25.50;99.90
23291;DHT22;11814;44.686;10.842;2023-06-10T14:01:05;25.50;99.90
23291;DHT22;11814;44.686;10.842;2023-06-10T14:03:31;25.50;99.90
23291;DHT22;11814;44.686;10.842;2023-06-10T14:05:57;25.50;99.90
23291;DHT22;11814;44.686;10.842;2023-06-10T14:08:23;25.40;99.40
23291;DHT22;11814;44.686;10.842;2023-06-10T14:10:49;25.30;99.20
23291;DHT22;11814;44.686;10.842;2023-06-10T14:13:17;25.30;99.70
23291;DHT22;11814;44.686;10.842;2023-06-10T14:15:43;25.20;99.90
23291;DHT22;11814;44.686;10.842;2023-06-10T14:18:09;25.20;99.90
23291;DHT22;11814;44.686;10.842;2023-06-10T14:20:35;25.10;99.90
23291;DHT22;11814;44.686;10.842;2023-06-10T14:23:02;25.00;99.90
23291;DHT22;11814;44.686;10.842;2023-06-10T14:25:27;24.80;99.90
23291;DHT22;11814;44.686;10.842;2023-06-10T14:27:53;24.60;99.90
23291;DHT22;11814;44.686;10.842;2023-06-10T14:30:19;24.40;99.90
23291;DHT22;11814;44.686;10.842;2023-06-10T14:32:45;24.20;99.90
23291;DHT22;11814;44.686;10.842;2023-06-10T14:35:11;23.90;99.90
23291;DHT22;11814;44.686;10.842;2023-06-10T14:37:37;23.60;99.90
23291;DHT22;11814;44.686;10.842;2023-06-10T14:40:04;23.40;99.90
23291;DHT22;11814;44.686;10.842;2023-06-10T14:42:31;23.20;99.90
23291;DHT22;11814;44.686;10.842;2023-06-10T14:44:58;23.10;99.90
23291;DHT22;11814;44.686;10.842;2023-06-10T14:47:23;23.00;99.90
23291;DHT22;11814;44.686;10.842;2023-06-10T14:49:49;22.90;99.90
23291;DHT22;11814;44.686;10.842;2023-06-10T14:52:16;22.80;99.90
23291;DHT22;11814;44.686;10.842;2023-06-10T14:54:42;22.80;99.90
23291;DHT22;11814;44.686;10.842;2023-06-10T14:57:07;22.70;99.90
23291;DHT22;11814;44.686;10.842;2023-06-10T14:59:33;22.70;99.90
23291;DHT22;11814;44.686;10.842;2023-06-10T15:02:00;22.70;99.90
23291;DHT22;11814;44.686;10.842;2023-06-10T15:04:27;22.60;99.90
23291;DHT22;11814;44.686;10.842;2023-06-10T15:06:53;22.50;99.90
23291;DHT22;11814;44.686;10.842;2023-06-10T15:09:19;22.40;99.90
23291;DHT22;11814;44.686;10.842;2023-06-10T15:11:46;22.40;99.90
23291;DHT22;11814;44.686;10.842;2023-06-10T15:14:12;22.40;99.90
23291;DHT22;11814;44.686;10.842;2023-06-10T15:16:38;22.50;99.90
23291;DHT22;11814;44.686;10.842;2023-06-10T15:19:04;22.50;99.90
23291;DHT22;11814;44.686;10.842;2023-06-10T15:21:32;22.50;99.90
23291;DHT22;11814;44.686;10.842;2023-06-10T15:23:58;22.50;99.90
23291;DHT22;11814;44.686;10.842;2023-06-10T15:26:24;22.50;99.90
23291;DHT22;11814;44.686;10.842;2023-06-10T15:28:50;22.50;99.90
23291;DHT22;11814;44.686;10.842;2023-06-10T15:31:16;22.60;99.90
23291;DHT22;11814;44.686;10.842;2023-06-10T15:33:41;22.60;99.90
23291;DHT22;11814;44.686;10.842;2023-06-10T15:36:07;22.70;99.90
23291;DHT22;11814;44.686;10.842;2023-06-10T15:38:33;22.70;99.90
23291;DHT22;11814;44.686;10.842;2023-06-10T15:40:59;22.80;99.90